Time;durP1;ratioP1;P1;durP2;ratioP2;P2;SDS_P1;SDS_P2;PMS_P1;PMS_P2;Temp;Humidity;BMP_temperature;BMP_pressure;BME280_temperature;BME280_humidity;BME280_pressure;Samples;Min_cycle;Max_cycle;Signal;HPM_P1;HPM_P2
2022/12/29 00:02:10;;;;;;;9.30;7.68;;;10.00;99.90;;;;;;5049308;28;20068;-60
2022/12/29 00:04:36;;;;;;;9.00;6.75;;;10.00;99.90;;;;;;5058077;28;20064;-61
2022/12/29 00:07:04;;;;;;;8.95;7.38;;;10.00;99.90;;;;;;5048781;28;20084;-61
2022/12/29 00:09:30;;;;;;;6.88;6.18;;;10.00;99.90;;;;;;5049624;28;20045;-59
2022/12/29 00:11:57;;;;;;;8.23;6.30;;;10.00;99.90;;;;;;5051758;28;20041;-59
2022/12/29 00:17:07;;;;;;;9.40;8.40;;;10.00;99.90;;;;;;5035745;28;20446;-60
2022/12/29 00:36:11;;;;;;;8.70;7.10;;;10.10;99.90;;;;;;5054458;28;20044;-61
2022/12/29 00:44:11;;;;;;;8.93;7.05;;;10.20;99.90;;;;;;5033467;28;20131;-61
2022/12/29 00:46:38;;;;;;;12.82;8.68;;;10.20;99.90;;;;;;5044953;28;20049;-60
2022/12/29 00:51:51;;;;;;;8.10;6.95;;;10.20;99.90;;;;;;5052953;28;20116;-61
2022/12/29 00:54:17;;;;;;;7.80;5.70;;;10.20;99.90;;;;;;5047900;28;20620;-60
2022/12/29 00:56:45;;;;;;;9.95;7.47;;;10.20;99.90;;;;;;5040245;28;20045;-60
2022/12/29 00:59:11;;;;;;;8.77;6.90;;;10.30;99.90;;;;;;5047433;28;20139;-60
2022/12/29 01:01:38;;;;;;;8.70;7.22;;;10.20;99.90;;;;;;5049727;28;20049;-60
2022/12/29 01:04:05;;;;;;;6.60;5.90;;;10.30;99.90;;;;;;5051140;28;20068;-60
2022/12/29 01:06:31;;;;;;;9.27;6.55;;;10.20;99.90;;;;;;5045919;28;20102;-60
2022/12/29 01:11:42;;;;;;;7.35;5.60;;;10.30;99.90;;;;;;5048084;28;20076;-61
2022/12/29 01:14:08;;;;;;;6.70;6.00;;;10.30;99.90;;;;;;5050087;28;20164;-61
2022/12/29 01:16:36;;;;;;;7.22;5.63;;;10.30;99.90;;;;;;5041185;28;20044;-60
2022/12/29 01:19:02;;;;;;;5.57;5.00;;;10.30;99.90;;;;;;5049378;28;20044;-61
2022/12/29 01:21:28;;;;;;;8.32;6.97;;;10.20;99.90;;;;;;5049796;28;20106;-60
2022/12/29 01:23:54;;;;;;;7.90;6.22;;;10.20;99.90;;;;;;5044038;28;20060;-60
2022/12/29 01:26:20;;;;;;;9.20;7.65;;;10.30;99.90;;;;;;5050166;28;20056;-61
2022/12/29 01:28:46;;;;;;;7.60;5.93;;;10.30;99.90;;;;;;5043991;28;20040;-61
2022/12/29 01:31:14;;;;;;;11.10;8.77;;;10.30;99.90;;;;;;5047317;28;20098;-60
2022/12/29 01:33:41;;;;;;;8.13;7.10;;;10.30;99.90;;;;;;5047264;28;20047;-60
2022/12/29 01:36:10;;;;;;;11.45;8.25;;;10.30;99.90;;;;;;5048395;28;20048;-61
2022/12/29 01:38:37;;;;;;;11.70;8.30;;;10.30;99.90;;;;;;5047043;28;20055;-61
2022/12/29 01:41:05;;;;;;;12.07;8.30;;;10.30;99.90;;;;;;5043222;28;20081;-59
2022/12/29 01:43:51;;;;;;;11.50;8.80;;;10.30;99.90;;;;;;5052469;28;20169;-61
2022/12/29 01:46:31;;;;;;;7.85;7.03;;;10.30;99.90;;;;;;5048230;28;20482;-60
2022/12/29 01:49:03;;;;;;;9.38;7.82;;;10.30;99.90;;;;;;5046374;28;20057;-60
2022/12/29 01:51:32;;;;;;;9.18;6.57;;;10.30;99.90;;;;;;5045755;28;20040;-61
2022/12/29 01:54:02;;;;;;;9.98;5.80;;;10.30;99.90;;;;;;5056255;28;20450;-61
2022/12/29 01:56:28;;;;;;;10.02;7.00;;;10.30;99.90;;;;;;5047994;28;20056;-60
2022/12/29 01:59:04;;;;;;;12.48;9.20;;;10.30;99.90;;;;;;5044243;28;20494;-61
2022/12/29 02:01:30;;;;;;;15.23;11.50;;;10.30;99.90;;;;;;5058645;28;20068;-60
2022/12/29 02:03:56;;;;;;;11.95;9.60;;;10.20;99.90;;;;;;5048871;28;20084;-61
2022/12/29 02:06:27;;;;;;;10.77;9.20;;;10.20;99.90;;;;;;5043595;28;20128;-60
2022/12/29 02:08:55;;;;;;;12.68;10.38;;;10.20;99.90;;;;;;5044063;28;21088;-59
2022/12/29 02:11:23;;;;;;;9.60;7.00;;;10.10;99.90;;;;;;5046449;28;20052;-61
2022/12/29 02:13:49;;;;;;;9.38;7.05;;;10.10;99.90;;;;;;5048664;28;20045;-61
2022/12/29 02:16:27;;;;;;;8.13;7.00;;;10.10;99.90;;;;;;5042792;28;24300;-59
2022/12/29 02:19:08;;;;;;;11.25;6.60;;;10.10;99.90;;;;;;5047407;28;20466;-61
2022/12/29 02:22:09;;;;;;;6.40;5.68;;;10.10;99.90;;;;;;5047803;28;20048;-61
2022/12/29 02:25:02;;;;;;;9.02;7.10;;;10.10;99.90;;;;;;5057783;28;20056;-61
2022/12/29 02:27:35;;;;;;;11.80;7.88;;;10.10;99.90;;;;;;5046101;28;20049;-61
2022/12/29 02:30:38;;;;;;;9.00;6.93;;;10.10;99.90;;;;;;5036588;28;20048;-61
2022/12/29 02:33:20;;;;;;;5.15;4.53;;;10.10;99.90;;;;;;5054551;28;20487;-61
2022/12/29 02:36:09;;;;;;;6.72;4.80;;;10.10;99.90;;;;;;5051002;28;20491;-60
2022/12/29 02:39:00;;;;;;;6.80;4.88;;;10.10;99.90;;;;;;5050921;28;20037;-60
2022/12/29 02:41:47;;;;;;;7.43;4.35;;;10.10;99.90;;;;;;5049471;28;20120;-60
2022/12/29 02:44:33;;;;;;;6.20;4.35;;;10.20;99.90;;;;;;5051483;28;20122;-61
2022/12/29 02:47:16;;;;;;;6.28;5.10;;;10.20;99.90;;;;;;5051376;28;20066;-58
2022/12/29 02:49:59;;;;;;;;;;;10.20;99.90;;;;;;5052502;28;20193;-61
2022/12/29 02:52:52;;;;;;;5.40;3.22;;;10.20;99.90;;;;;;5052048;28;20413;-60
2022/12/29 02:55:18;;;;;;;3.70;3.20;;;10.20;99.90;;;;;;5066871;28;20055;-60
2022/12/29 02:57:44;;;;;;;6.05;3.25;;;10.20;99.90;;;;;;5045594;28;20049;-60
2022/12/29 03:00:14;;;;;;;5.68;2.92;;;10.20;99.90;;;;;;5045701;28;20264;-61
2022/12/29 03:02:57;;;;;;;4.15;3.20;;;10.30;99.90;;;;;;5048371;28;20494;-60
2022/12/29 03:05:36;;;;;;;7.05;5.20;;;10.20;99.90;;;;;;5052201;28;20049;-60
2022/12/29 03:08:10;;;;;;;7.55;5.00;;;10.30;99.90;;;;;;5048951;28;20045;-61
2022/12/29 03:10:55;;;;;;;6.20;2.90;;;10.20;99.90;;;;;;5050315;28;20113;-60
2022/12/29 03:16:24;;;;;;;4.93;3.20;;;10.30;99.90;;;;;;5048408;28;20056;-60
2022/12/29 03:19:23;;;;;;;3.50;2.28;;;10.20;99.90;;;;;;5050751;28;20049;-59
2022/12/29 03:24:46;;;;;;;5.65;2.50;;;10.20;99.90;;;;;;5048507;28;20150;-61
2022/12/29 03:27:17;;;;;;;3.42;2.42;;;10.20;99.90;;;;;;5048096;28;20048;-60
2022/12/29 03:29:52;;;;;;;2.45;1.85;;;10.20;99.90;;;;;;5051458;28;20045;-60
2022/12/29 03:32:21;;;;;;;4.47;2.10;;;10.20;99.90;;;;;;5048352;28;20048;-60
2022/12/29 03:34:49;;;;;;;5.05;1.90;;;10.20;99.90;;;;;;5047306;28;20569;-60
2022/12/29 03:37:21;;;;;;;5.28;1.60;;;10.10;99.90;;;;;;5052251;28;20084;-60
2022/12/29 03:39:47;;;;;;;3.50;1.80;;;10.10;99.90;;;;;;5048749;28;20052;-60
2022/12/29 03:42:34;;;;;;;5.40;2.25;;;10.10;99.90;;;;;;5047939;28;20533;-60
2022/12/29 03:45:00;;;;;;;6.70;1.90;;;10.00;99.90;;;;;;5053180;28;20068;-60
2022/12/29 03:47:26;;;;;;;4.85;1.50;;;10.00;99.90;;;;;;5047597;28;20132;-60
2022/12/29 03:49:53;;;;;;;4.60;1.63;;;10.00;99.90;;;;;;5027098;28;20055;-59
2022/12/29 03:52:19;;;;;;;4.47;1.65;;;9.90;99.90;;;;;;5055588;28;20042;-60
2022/12/29 03:54:45;;;;;;;7.43;1.90;;;9.90;99.90;;;;;;5051081;28;20044;-60
2022/12/29 03:57:11;;;;;;;3.25;1.60;;;9.90;99.90;;;;;;5047737;28;20478;-60
2022/12/29 03:59:37;;;;;;;5.38;2.10;;;9.80;99.90;;;;;;5050825;28;20049;-60
2022/12/29 04:02:03;;;;;;;3.88;1.90;;;9.80;99.90;;;;;;5046215;28;20380;-60
2022/12/29 04:04:28;;;;;;;6.90;2.35;;;9.80;99.90;;;;;;5050635;28;20489;-60
2022/12/29 04:06:54;;;;;;;3.38;1.80;;;9.80;99.90;;;;;;5044078;28;20045;-60
2022/12/29 04:09:20;;;;;;;3.72;1.83;;;9.70;99.90;;;;;;5046598;28;20037;-61
2022/12/29 04:11:46;;;;;;;3.35;2.03;;;9.70;99.90;;;;;;5050256;28;20072;-60
2022/12/29 04:14:11;;;;;;;5.25;2.30;;;9.70;99.90;;;;;;5046392;28;20059;-60
2022/12/29 04:16:38;;;;;;;6.45;2.00;;;9.70;99.90;;;;;;5047455;28;20044;-60
2022/12/29 04:19:07;;;;;;;5.70;2.30;;;9.70;99.90;;;;;;5056553;28;20095;-60
2022/12/29 04:21:33;;;;;;;6.53;2.25;;;9.70;99.90;;;;;;5048185;28;20145;-60
2022/12/29 04:23:59;;;;;;;5.57;1.95;;;9.70;99.90;;;;;;5048683;28;20057;-60
2022/12/29 04:26:25;;;;;;;5.45;1.60;;;9.70;99.90;;;;;;5033638;28;20106;-60
2022/12/29 04:28:51;;;;;;;3.70;1.67;;;9.80;99.90;;;;;;5047781;28;20142;-60
2022/12/29 04:31:17;;;;;;;5.97;1.70;;;9.80;99.90;;;;;;5050351;28;20159;-60
2022/12/29 04:33:42;;;;;;;7.18;1.90;;;9.70;99.90;;;;;;5051837;28;20121;-60
2022/12/29 04:36:08;;;;;;;5.32;1.58;;;9.70;99.90;;;;;;5046602;28;20045;-60
2022/12/29 04:38:34;;;;;;;5.30;1.10;;;9.70;99.90;;;;;;5045712;28;20056;-60
2022/12/29 04:41:01;;;;;;;6.43;1.35;;;9.80;99.90;;;;;;5047985;28;22261;-60
2022/12/29 04:43:27;;;;;;;9.50;1.95;;;9.70;99.90;;;;;;5050537;28;20048;-60
2022/12/29 04:45:53;;;;;;;6.70;1.40;;;9.80;99.90;;;;;;5045771;28;20131;-58
2022/12/29 04:48:19;;;;;;;6.35;1.38;;;9.80;99.90;;;;;;5046487;28;20549;-60
2022/12/29 04:50:48;;;;;;;8.05;1.42;;;9.80;99.90;;;;;;5051119;28;20052;-61
2022/12/29 04:53:14;;;;;;;9.32;1.50;;;9.70;99.90;;;;;;5047694;28;20074;-60
2022/12/29 04:55:40;;;;;;;5.03;1.33;;;9.70;99.90;;;;;;5047573;28;20041;-61
2022/12/29 04:58:06;;;;;;;5.22;1.48;;;9.70;99.90;;;;;;5047866;28;20048;-60
2022/12/29 05:00:32;;;;;;;6.22;1.50;;;9.60;99.90;;;;;;5042402;28;20072;-60
2022/12/29 05:02:58;;;;;;;9.18;1.42;;;9.60;99.90;;;;;;5050514;28;20525;-61
2022/12/29 05:05:24;;;;;;;9.73;1.60;;;9.60;99.90;;;;;;5047016;28;20457;-61
2022/12/29 05:07:50;;;;;;;6.95;1.52;;;9.60;99.90;;;;;;5050304;28;20127;-61
2022/12/29 05:10:16;;;;;;;13.45;2.20;;;9.50;99.90;;;;;;5052092;28;20044;-60
2022/12/29 05:12:42;;;;;;;7.47;1.67;;;9.50;99.90;;;;;;5050532;28;20087;-60
2022/12/29 05:15:10;;;;;;;7.30;1.70;;;9.50;99.90;;;;;;5048349;28;20045;-60
2022/12/29 05:17:35;;;;;;;13.63;2.38;;;9.40;99.90;;;;;;5049139;28;20506;-60
2022/12/29 05:20:01;;;;;;;11.73;1.88;;;9.40;99.90;;;;;;5046586;28;20036;-60
2022/12/29 05:22:27;;;;;;;8.68;2.15;;;9.40;99.90;;;;;;5050414;28;20043;-61
2022/12/29 05:24:53;;;;;;;8.93;1.92;;;9.40;99.90;;;;;;5048298;28;20051;-61
2022/12/29 05:27:18;;;;;;;10.52;1.92;;;9.30;99.90;;;;;;5045075;28;20098;-60
2022/12/29 05:29:44;;;;;;;11.48;2.10;;;9.30;99.90;;;;;;5050979;28;20152;-61
2022/12/29 05:32:10;;;;;;;11.93;2.17;;;9.30;99.90;;;;;;5045107;28;20036;-60
2022/12/29 05:34:36;;;;;;;9.65;1.95;;;9.20;99.90;;;;;;5048644;28;20536;-60
2022/12/29 05:37:02;;;;;;;18.83;2.50;;;9.20;99.90;;;;;;5047901;28;20501;-61
2022/12/29 05:39:29;;;;;;;11.73;2.35;;;9.20;99.90;;;;;;5056368;28;20506;-61
2022/12/29 05:41:54;;;;;;;11.40;2.30;;;9.10;99.90;;;;;;5053564;28;20045;-61
2022/12/29 05:44:20;;;;;;;11.43;2.30;;;9.10;99.90;;;;;;5046094;28;20037;-60
2022/12/29 05:46:46;;;;;;;12.75;2.00;;;9.10;99.90;;;;;;5043250;28;20037;-61
2022/12/29 05:49:12;;;;;;;12.25;2.03;;;9.10;99.90;;;;;;5066281;28;20111;-61
2022/12/29 05:51:38;;;;;;;13.75;2.58;;;9.10;99.90;;;;;;5053472;28;20067;-61
2022/12/29 05:54:04;;;;;;;10.68;2.58;;;9.10;99.90;;;;;;5049056;28;20491;-59
2022/12/29 05:56:30;;;;;;;10.82;2.28;;;9.10;99.90;;;;;;5048843;28;20036;-61
2022/12/29 05:58:56;;;;;;;10.93;2.15;;;9.10;99.90;;;;;;5055999;28;20040;-60
2022/12/29 06:01:21;;;;;;;15.15;2.83;;;9.10;99.90;;;;;;5046290;28;20058;-61
2022/12/29 06:03:47;;;;;;;12.45;2.28;;;9.10;99.90;;;;;;5048334;28;20706;-60
2022/12/29 06:06:13;;;;;;;14.60;2.60;;;9.10;99.90;;;;;;5048733;28;20059;-60
2022/12/29 06:08:39;;;;;;;9.10;2.10;;;9.10;99.90;;;;;;5049648;28;20037;-60
2022/12/29 06:11:05;;;;;;;13.48;2.40;;;9.10;99.90;;;;;;5052228;28;20044;-61
2022/12/29 06:13:30;;;;;;;8.30;1.85;;;9.10;99.90;;;;;;5049450;28;20404;-60
2022/12/29 06:15:56;;;;;;;12.45;2.45;;;9.10;99.90;;;;;;5043284;28;20043;-60
2022/12/29 06:18:22;;;;;;;11.30;1.90;;;9.10;99.90;;;;;;5050070;28;20056;-60
2022/12/29 06:20:48;;;;;;;12.70;2.58;;;9.20;99.90;;;;;;5051086;28;20048;-61
2022/12/29 06:23:14;;;;;;;10.40;2.08;;;9.20;99.90;;;;;;5051538;28;20433;-61
2022/12/29 06:25:39;;;;;;;14.30;2.42;;;9.20;99.90;;;;;;5053309;28;20052;-61
2022/12/29 06:28:05;;;;;;;19.05;2.97;;;9.20;99.90;;;;;;5048464;28;20052;-60
2022/12/29 06:30:32;;;;;;;15.15;2.50;;;9.10;99.90;;;;;;5050834;28;20854;-61
2022/12/29 06:32:58;;;;;;;17.92;2.60;;;9.10;99.90;;;;;;5051249;28;20102;-61
2022/12/29 06:35:24;;;;;;;12.55;2.65;;;9.10;99.90;;;;;;5048454;28;20186;-59
2022/12/29 06:37:51;;;;;;;19.80;3.35;;;9.10;99.90;;;;;;5047053;28;20116;-60
2022/12/29 06:40:16;;;;;;;22.52;3.25;;;9.10;99.90;;;;;;5048974;28;20055;-61
2022/12/29 06:42:42;;;;;;;19.70;2.72;;;9.00;99.90;;;;;;5050408;28;20033;-61
2022/12/29 06:45:08;;;;;;;20.73;3.05;;;9.00;99.90;;;;;;5049045;28;20063;-61
2022/12/29 06:47:35;;;;;;;20.63;2.78;;;9.00;99.90;;;;;;5050552;28;20560;-61
2022/12/29 06:50:01;;;;;;;21.92;2.97;;;9.00;99.90;;;;;;5048567;28;20075;-59
2022/12/29 06:52:28;;;;;;;15.98;2.65;;;9.00;99.90;;;;;;5048801;28;20040;-61
2022/12/29 06:54:54;;;;;;;10.63;2.63;;;9.00;99.90;;;;;;5052333;28;20045;-61
2022/12/29 06:57:21;;;;;;;16.23;3.03;;;9.00;99.90;;;;;;5049878;28;20056;-61
2022/12/29 06:59:47;;;;;;;15.55;2.78;;;9.00;99.90;;;;;;5049226;28;20064;-61
2022/12/29 07:02:18;;;;;;;16.80;2.65;;;8.90;99.90;;;;;;5047232;28;20045;-60
2022/12/29 07:04:43;;;;;;;16.45;3.47;;;8.90;99.90;;;;;;5054352;28;20051;-60
2022/12/29 07:07:09;;;;;;;18.90;3.00;;;8.90;99.90;;;;;;5051871;28;20049;-61
2022/12/29 07:09:35;;;;;;;20.33;3.00;;;8.90;99.90;;;;;;5048784;28;20047;-60
2022/12/29 07:12:01;;;;;;;15.48;2.80;;;8.80;99.90;;;;;;5046590;28;20075;-60
2022/12/29 07:14:26;;;;;;;16.38;3.05;;;8.80;99.90;;;;;;5048714;28;20045;-60
2022/12/29 07:16:52;;;;;;;22.98;2.83;;;8.90;99.90;;;;;;5050774;28;20498;-61
2022/12/29 07:19:18;;;;;;;16.33;3.25;;;8.90;99.90;;;;;;5037620;28;20135;-61
2022/12/29 07:21:44;;;;;;;20.20;2.97;;;8.90;99.90;;;;;;5051892;28;20088;-59
2022/12/29 07:24:10;;;;;;;12.00;2.42;;;8.90;99.90;;;;;;5052727;28;20391;-61
2022/12/29 07:26:36;;;;;;;19.50;3.17;;;8.90;99.90;;;;;;5048751;28;20053;-60
2022/12/29 07:29:03;;;;;;;14.70;2.53;;;8.90;99.90;;;;;;5052741;28;21591;-61
2022/12/29 07:31:29;;;;;;;16.23;3.15;;;8.90;99.90;;;;;;5056011;28;20098;-61
2022/12/29 07:33:54;;;;;;;15.15;2.60;;;9.00;99.90;;;;;;5046972;28;20078;-61
2022/12/29 07:36:21;;;;;;;13.35;2.85;;;9.00;99.90;;;;;;5053545;28;20394;-61
2022/12/29 07:38:46;;;;;;;12.18;2.42;;;9.00;99.90;;;;;;5056019;28;20052;-61
2022/12/29 07:41:12;;;;;;;16.98;2.85;;;9.00;99.90;;;;;;5053044;28;20049;-60
2022/12/29 07:43:38;;;;;;;15.15;2.95;;;9.00;99.90;;;;;;5053864;28;20048;-60
2022/12/29 07:46:05;;;;;;;22.98;3.38;;;9.10;99.90;;;;;;5054373;28;20048;-61
2022/12/29 07:48:33;;;;;;;14.18;2.65;;;9.10;99.90;;;;;;5050945;28;20052;-61
2022/12/29 07:50:59;;;;;;;16.05;2.70;;;9.10;99.90;;;;;;5045570;28;20041;-60
2022/12/29 07:53:24;;;;;;;12.40;2.35;;;9.10;99.90;;;;;;5055957;28;20040;-60
2022/12/29 07:55:50;;;;;;;20.75;3.08;;;9.10;99.90;;;;;;5054411;28;20085;-61
2022/12/29 07:58:16;;;;;;;15.70;2.70;;;9.20;99.90;;;;;;5051387;28;20045;-60
2022/12/29 08:00:42;;;;;;;20.35;3.25;;;9.20;99.90;;;;;;5045902;28;20052;-61
2022/12/29 08:03:07;;;;;;;16.42;2.88;;;9.20;99.90;;;;;;5051981;28;20506;-60
2022/12/29 08:05:34;;;;;;;15.32;3.17;;;9.20;99.90;;;;;;5049799;28;20915;-60
2022/12/29 08:07:59;;;;;;;16.55;3.33;;;9.20;99.90;;;;;;5051946;28;20072;-61
2022/12/29 08:10:26;;;;;;;13.82;3.45;;;9.20;99.90;;;;;;5049546;28;20751;-60
2022/12/29 08:12:51;;;;;;;16.42;3.22;;;9.20;99.90;;;;;;5048176;28;20067;-63
2022/12/29 08:15:17;;;;;;;15.25;3.28;;;9.20;99.90;;;;;;5053094;28;20079;-62
2022/12/29 08:17:43;;;;;;;20.65;3.63;;;9.10;99.90;;;;;;5048815;28;20115;-62
2022/12/29 08:20:09;;;;;;;25.55;3.67;;;9.10;99.90;;;;;;5040098;28;20059;-60
2022/12/29 08:22:35;;;;;;;21.42;3.10;;;9.10;99.90;;;;;;5045383;28;20446;-60
2022/12/29 08:25:01;;;;;;;17.55;3.28;;;9.10;99.90;;;;;;5042100;28;20040;-60
2022/12/29 08:27:27;;;;;;;20.08;3.53;;;9.10;99.90;;;;;;5043163;28;20142;-60
2022/12/29 08:29:53;;;;;;;18.65;3.58;;;9.10;99.90;;;;;;5051515;28;20139;-60
2022/12/29 08:32:18;;;;;;;17.92;3.30;;;9.20;99.90;;;;;;5047856;28;20094;-60
2022/12/29 08:34:44;;;;;;;21.40;3.80;;;9.20;99.90;;;;;;5053383;28;20044;-60
2022/12/29 08:37:10;;;;;;;23.63;3.63;;;9.20;99.90;;;;;;5048296;28;20033;-60
2022/12/29 08:39:36;;;;;;;22.98;3.20;;;9.10;99.90;;;;;;5050115;28;20044;-59
2022/12/29 08:42:01;;;;;;;19.15;2.83;;;9.10;99.90;;;;;;5046403;28;20158;-60
2022/12/29 08:44:27;;;;;;;20.40;3.70;;;9.20;99.90;;;;;;5061489;28;20135;-60
2022/12/29 08:46:53;;;;;;;23.38;3.10;;;9.10;99.90;;;;;;5050910;28;20045;-60
2022/12/29 08:49:19;;;;;;;18.90;3.35;;;9.10;99.90;;;;;;5053027;28;20522;-60
2022/12/29 08:51:45;;;;;;;21.15;3.50;;;9.00;99.90;;;;;;5046783;28;20116;-60
2022/12/29 08:54:10;;;;;;;20.33;3.83;;;9.10;99.90;;;;;;5055005;28;20043;-60
2022/12/29 08:56:36;;;;;;;20.35;3.30;;;9.00;99.90;;;;;;5052671;28;20151;-60
2022/12/29 08:59:02;;;;;;;21.83;3.75;;;9.00;99.90;;;;;;5049577;28;20057;-60
2022/12/29 09:01:28;;;;;;;16.58;3.63;;;9.00;99.90;;;;;;5041585;28;20052;-60
2022/12/29 09:03:54;;;;;;;20.83;3.85;;;9.00;99.90;;;;;;5043540;28;20047;-60
2022/12/29 09:06:20;;;;;;;22.70;4.18;;;9.00;99.90;;;;;;5047574;28;20435;-60
2022/12/29 09:08:46;;;;;;;23.55;3.55;;;9.00;99.90;;;;;;5047867;28;20504;-59
2022/12/29 09:11:19;;;;;;;24.30;3.97;;;9.00;99.90;;;;;;5048856;28;20047;-60
2022/12/29 09:13:45;;;;;;;;;;;9.10;99.90;;;;;;5043388;28;20536;-60
2022/12/29 09:16:11;;;;;;;19.52;3.40;;;9.10;99.90;;;;;;5046667;28;19936;-60
2022/12/29 09:18:37;;;;;;;28.45;4.20;;;9.00;99.90;;;;;;5047821;28;20044;-60
2022/12/29 09:21:05;;;;;;;25.13;3.80;;;9.00;99.90;;;;;;5046276;28;20058;-60
2022/12/29 09:23:31;;;;;;;28.73;4.25;;;9.00;99.90;;;;;;5033383;28;20123;-60
2022/12/29 09:25:57;;;;;;;21.13;3.65;;;8.90;99.90;;;;;;5044538;28;20128;-60
2022/12/29 09:28:23;;;;;;;26.25;3.72;;;8.90;99.90;;;;;;5039593;28;20048;-60
2022/12/29 09:30:49;;;;;;;22.48;3.30;;;8.90;99.90;;;;;;5041966;28;20118;-60
2022/12/29 09:33:16;;;;;;;22.13;3.92;;;8.90;99.90;;;;;;5043615;28;20495;-60
2022/12/29 09:35:43;;;;;;;21.80;3.67;;;8.90;99.90;;;;;;5045566;28;20490;-60
2022/12/29 09:38:09;;;;;;;22.40;3.85;;;9.00;99.90;;;;;;5048587;28;20483;-60
2022/12/29 09:40:35;;;;;;;24.85;3.60;;;9.00;99.90;;;;;;5045617;28;20049;-60
2022/12/29 09:43:29;;;;;;;21.25;3.67;;;9.00;99.90;;;;;;5043473;28;20037;-60
2022/12/29 09:46:13;;;;;;;19.40;2.92;;;9.00;99.90;;;;;;5041156;28;20407;-60
2022/12/29 09:48:44;;;;;;;20.45;3.83;;;9.00;99.90;;;;;;5037096;28;20053;-59
2022/12/29 09:51:21;;;;;;;16.92;3.53;;;9.00;99.90;;;;;;5039837;28;20394;-60
2022/12/29 09:53:55;;;;;;;18.58;3.60;;;9.00;99.90;;;;;;5036712;28;20610;-59
2022/12/29 09:56:23;;;;;;;18.65;3.42;;;9.00;99.90;;;;;;5039791;28;20111;-59
2022/12/29 09:58:57;;;;;;;19.80;3.75;;;9.00;99.90;;;;;;5039977;28;20126;-60
2022/12/29 10:01:49;;;;;;;17.70;2.88;;;9.00;99.90;;;;;;5035653;28;20032;-60
2022/12/29 10:04:14;;;;;;;14.85;3.10;;;9.00;99.90;;;;;;5040610;28;20043;-60
2022/12/29 10:07:09;;;;;;;15.50;2.90;;;9.00;99.90;;;;;;5020320;28;20070;-60
2022/12/29 10:09:47;;;;;;;15.77;3.08;;;9.00;99.90;;;;;;5039102;28;20140;-60
2022/12/29 10:12:22;;;;;;;11.00;2.65;;;8.90;99.90;;;;;;5038474;28;20064;-60
2022/12/29 10:14:50;;;;;;;16.85;3.08;;;8.90;99.90;;;;;;5037768;28;20106;-60
2022/12/29 10:17:31;;;;;;;16.13;3.05;;;8.90;99.90;;;;;;5040632;28;20087;-60
2022/12/29 10:20:24;;;;;;;20.13;2.95;;;8.90;99.90;;;;;;5044651;28;20068;-59
2022/12/29 10:23:35;;;;;;;16.80;3.05;;;8.80;99.90;;;;;;5046008;28;20356;-60
2022/12/29 10:26:02;;;;;;;15.18;3.00;;;8.80;99.90;;;;;;5037268;28;20138;-60
2022/12/29 10:28:38;;;;;;;15.07;2.78;;;8.80;99.90;;;;;;5035978;28;20045;-59
2022/12/29 10:31:09;;;;;;;15.23;2.63;;;8.80;99.90;;;;;;5043092;28;20039;-58
2022/12/29 10:33:41;;;;;;;18.25;2.70;;;8.80;99.90;;;;;;5036501;28;20544;-59
2022/12/29 10:36:36;;;;;;;12.63;2.58;;;8.80;99.90;;;;;;5041037;28;20150;-60
2022/12/29 10:39:41;;;;;;;13.88;2.53;;;8.70;99.90;;;;;;5036445;28;20067;-60
2022/12/29 10:42:19;;;;;;;12.82;2.80;;;8.70;99.90;;;;;;5033057;28;21274;-59
2022/12/29 10:44:45;;;;;;;16.67;2.85;;;8.70;99.90;;;;;;5038452;28;20048;-59
2022/12/29 10:47:16;;;;;;;17.58;2.70;;;8.70;99.90;;;;;;5038918;28;20047;-59
2022/12/29 10:49:44;;;;;;;14.52;2.70;;;8.70;99.90;;;;;;5036576;28;20499;-59
2022/12/29 10:52:11;;;;;;;20.38;3.03;;;8.80;99.90;;;;;;5041574;28;20086;-59
2022/12/29 10:54:56;;;;;;;19.75;3.60;;;8.80;99.90;;;;;;5039679;28;20053;-59
2022/12/29 10:57:33;;;;;;;16.20;3.53;;;8.80;99.90;;;;;;5041519;28;20053;-60
2022/12/29 10:59:59;;;;;;;21.65;3.97;;;8.90;99.90;;;;;;5044799;28;20082;-60
2022/12/29 11:02:25;;;;;;;25.08;3.83;;;8.90;99.90;;;;;;5040568;28;20076;-60
2022/12/29 11:05:01;;;;;;;18.55;3.80;;;8.90;99.90;;;;;;5043319;28;20063;-59
2022/12/29 11:07:28;;;;;;;23.13;4.45;;;8.90;99.90;;;;;;5040888;28;20056;-59
2022/12/29 11:09:54;;;;;;;25.58;3.83;;;9.00;99.90;;;;;;5046274;28;20049;-60
2022/12/29 11:12:28;;;;;;;19.65;3.83;;;9.00;99.90;;;;;;5043424;28;20040;-60
2022/12/29 11:15:08;;;;;;;24.67;4.07;;;9.00;99.90;;;;;;5043750;28;20048;-59
2022/12/29 11:17:45;;;;;;;28.45;4.22;;;9.00;99.90;;;;;;5044773;28;20120;-59
2022/12/29 11:20:38;;;;;;;28.33;4.22;;;9.00;99.90;;;;;;5042179;28;20037;-59
2022/12/29 11:23:06;;;;;;;;;;;9.00;99.90;;;;;;5043069;28;20071;-59
2022/12/29 11:25:31;;;;;;;23.70;4.35;;;9.00;99.90;;;;;;5039191;28;20374;-59
2022/12/29 11:28:12;;;;;;;19.40;3.97;;;9.00;99.90;;;;;;5053162;28;20124;-59
2022/12/29 11:30:38;;;;;;;21.85;3.90;;;9.00;99.90;;;;;;5043715;28;20091;-59
2022/12/29 11:33:04;;;;;;;23.77;4.43;;;9.10;99.90;;;;;;5043004;28;20566;-59
2022/12/29 11:35:43;;;;;;;22.80;4.65;;;9.10;99.90;;;;;;5043750;28;20047;-59
2022/12/29 11:38:21;;;;;;;24.17;4.45;;;9.10;99.90;;;;;;5040593;28;20132;-60
2022/12/29 11:40:48;;;;;;;22.08;4.40;;;9.10;99.90;;;;;;5034932;28;20047;-59
2022/12/29 11:43:33;;;;;;;25.23;4.47;;;9.10;99.90;;;;;;5043461;28;20841;-59
2022/12/29 11:46:00;;;;;;;24.30;4.25;;;9.10;99.90;;;;;;5034890;28;20037;-60
2022/12/29 11:48:31;;;;;;;26.30;4.50;;;9.10;99.90;;;;;;5043237;28;21214;-59
2022/12/29 11:51:01;;;;;;;27.88;4.32;;;9.10;99.90;;;;;;5041293;28;20048;-59
2022/12/29 11:53:39;;;;;;;21.83;4.72;;;9.20;99.90;;;;;;5036394;28;20085;-59
2022/12/29 11:56:07;;;;;;;18.40;3.58;;;9.20;99.90;;;;;;5042625;28;20222;-62
2022/12/29 11:58:36;;;;;;;24.58;3.80;;;9.20;99.90;;;;;;5038119;28;20068;-60
2022/12/29 12:01:23;;;;;;;21.60;3.90;;;9.20;99.90;;;;;;5036779;28;20045;-59
2022/12/29 12:04:01;;;;;;;23.38;4.30;;;9.20;99.90;;;;;;5038856;28;20084;-60
2022/12/29 12:06:29;;;;;;;21.60;3.40;;;9.20;99.90;;;;;;5036292;28;20072;-60
2022/12/29 12:09:14;;;;;;;26.83;4.32;;;9.20;99.90;;;;;;5038834;28;20110;-60
2022/12/29 12:11:45;;;;;;;19.58;3.97;;;9.10;99.90;;;;;;5042570;28;20041;-60
2022/12/29 12:14:22;;;;;;;23.70;3.97;;;9.10;99.90;;;;;;5039263;28;20041;-59
2022/12/29 12:16:56;;;;;;;22.55;4.05;;;9.10;99.90;;;;;;5037663;28;20059;-60
2022/12/29 12:19:38;;;;;;;18.83;3.67;;;9.10;99.90;;;;;;5041439;28;20052;-60
2022/12/29 12:22:21;;;;;;;28.20;4.10;;;9.10;99.90;;;;;;5041908;28;20080;-60
2022/12/29 12:24:54;;;;;;;19.38;4.65;;;9.10;99.90;;;;;;5037222;28;20052;-58
2022/12/29 12:27:28;;;;;;;14.48;2.97;;;9.20;99.90;;;;;;5040000;28;20040;-59
2022/12/29 12:30:14;;;;;;;14.57;3.20;;;9.20;99.90;;;;;;5038116;28;20148;-60
2022/12/29 12:33:04;;;;;;;12.25;2.90;;;9.20;99.90;;;;;;5033671;28;20057;-59
2022/12/29 12:35:57;;;;;;;19.73;3.33;;;9.30;99.90;;;;;;5038395;28;20053;-60
2022/12/29 12:38:42;;;;;;;11.47;2.50;;;9.30;99.90;;;;;;5041697;28;20048;-60
2022/12/29 12:41:10;;;;;;;14.68;2.92;;;9.30;99.90;;;;;;5041255;28;20091;-60
2022/12/29 12:43:48;;;;;;;11.10;2.17;;;9.30;99.90;;;;;;5040556;28;20060;-60
2022/12/29 12:46:39;;;;;;;15.70;3.00;;;9.20;99.90;;;;;;5042141;28;20037;-59
2022/12/29 12:49:27;;;;;;;19.33;2.65;;;9.20;99.90;;;;;;5044108;28;20549;-60
2022/12/29 12:52:24;;;;;;;15.80;2.85;;;9.20;99.90;;;;;;5042170;28;20535;-60
2022/12/29 12:55:23;;;;;;;18.52;3.20;;;9.20;99.90;;;;;;5044528;28;20045;-60
2022/12/29 12:58:08;;;;;;;16.55;3.03;;;9.20;99.90;;;;;;5041845;28;20049;-60
2022/12/29 13:00:44;;;;;;;14.80;2.67;;;9.20;99.90;;;;;;5041999;28;20057;-60
2022/12/29 13:03:17;;;;;;;13.82;2.47;;;9.20;99.90;;;;;;5031979;28;20504;-60
2022/12/29 13:06:01;;;;;;;10.57;2.13;;;9.20;99.90;;;;;;5046686;28;20052;-60
2022/12/29 13:08:45;;;;;;;15.65;2.63;;;9.30;99.90;;;;;;5040915;28;20056;-59
2022/12/29 13:11:28;;;;;;;16.63;2.70;;;9.30;99.90;;;;;;5046245;28;21516;-60
2022/12/29 13:14:09;;;;;;;8.95;2.33;;;9.40;99.90;;;;;;5041540;28;20036;-60
2022/12/29 13:16:50;;;;;;;10.55;3.13;;;9.40;99.90;;;;;;5043042;28;20072;-60
2022/12/29 13:19:25;;;;;;;13.07;3.65;;;9.40;99.90;;;;;;5041923;28;20049;-60
2022/12/29 13:21:58;;;;;;;12.98;2.10;;;9.30;99.90;;;;;;5045707;28;20052;-59
2022/12/29 13:24:43;;;;;;;9.85;2.33;;;9.30;99.90;;;;;;5041391;28;20132;-59
2022/12/29 13:27:32;;;;;;;11.75;2.30;;;9.20;99.90;;;;;;5043883;28;20470;-60
2022/12/29 13:30:13;;;;;;;12.43;1.92;;;9.10;99.90;;;;;;5043400;28;20045;-59
2022/12/29 13:33:04;;;;;;;13.27;2.05;;;9.10;99.90;;;;;;5041611;28;20056;-60
2022/12/29 13:35:45;;;;;;;17.52;2.50;;;9.10;99.90;;;;;;5040295;28;20124;-60
2022/12/29 13:38:20;;;;;;;9.25;1.90;;;9.00;99.90;;;;;;5026928;28;20148;-60
2022/12/29 13:40:50;;;;;;;15.43;2.15;;;9.00;99.90;;;;;;5040175;28;20056;-60
2022/12/29 13:43:17;;;;;;;9.48;2.22;;;9.00;99.90;;;;;;5043403;28;20055;-60
2022/12/29 13:45:45;;;;;;;11.05;2.13;;;8.90;99.90;;;;;;5038541;28;20100;-60